createdAt,value
2019-04-16T00:00:14.984Z,1010.68
2019-04-16T00:01:15.048Z,1010.67
2019-04-16T00:02:18.563Z,1010.66
2019-04-16T00:03:14.977Z,1010.68
2019-04-16T00:04:14.946Z,1010.64
2019-04-16T00:05:14.926Z,1010.67
2019-04-16T00:06:14.918Z,1010.64
2019-04-16T00:07:14.946Z,1010.63
2019-04-16T00:08:27.231Z,1010.62
2019-04-16T00:09:14.905Z,1010.61
2019-04-16T00:10:14.871Z,1010.59
2019-04-16T00:11:14.863Z,1010.58
2019-04-16T00:12:14.892Z,1010.57
2019-04-16T00:13:14.890Z,1010.56
2019-04-16T00:14:14.828Z,1010.51
2019-04-16T00:15:14.822Z,1010.54
2019-04-16T00:16:14.807Z,1010.49
2019-04-16T00:17:15.842Z,1010.53
2019-04-16T00:18:18.412Z,1010.54
2019-04-16T00:19:14.771Z,1010.48
2019-04-16T00:20:14.762Z,1010.48
2019-04-16T00:21:14.749Z,1010.45
2019-04-16T00:22:14.738Z,1010.47
2019-04-16T00:23:14.758Z,1010.46
2019-04-16T00:24:18.152Z,1010.46
2019-04-16T00:25:14.708Z,1010.45
2019-04-16T00:26:14.693Z,1010.41
2019-04-16T00:27:14.681Z,1010.46
2019-04-16T00:28:14.695Z,1010.47
2019-04-16T00:29:14.660Z,1010.43
2019-04-16T00:30:14.665Z,1010.39
2019-04-16T00:31:14.641Z,1010.40
2019-04-16T00:32:14.630Z,1010.44
2019-04-16T00:33:14.637Z,1010.41
2019-04-16T00:34:14.620Z,1010.44
2019-04-16T00:35:15.657Z,1010.44
2019-04-16T00:36:15.435Z,1010.41
2019-04-16T00:37:14.569Z,1010.40
2019-04-16T00:38:14.582Z,1010.43
2019-04-16T00:39:14.547Z,1010.45
2019-04-16T00:40:14.534Z,1010.40
2019-04-16T00:41:14.563Z,1010.44
2019-04-16T00:42:14.513Z,1010.36
2019-04-16T00:43:14.532Z,1010.41
2019-04-16T00:44:14.499Z,1010.41
2019-04-16T00:45:14.480Z,1010.40
2019-04-16T00:46:14.470Z,1010.39
2019-04-16T00:47:14.464Z,1010.35
2019-04-16T00:48:14.479Z,1010.37
2019-04-16T00:49:14.435Z,1010.36
2019-04-16T00:50:14.441Z,1010.34
2019-04-16T00:51:14.411Z,1010.35
2019-04-16T00:52:14.398Z,1010.34
2019-04-16T00:53:14.413Z,1010.33
2019-04-16T00:54:14.382Z,1010.35
2019-04-16T00:55:14.766Z,1010.33
2019-04-16T00:56:16.213Z,1010.28
2019-04-16T00:57:17.668Z,1010.36
2019-04-16T00:58:14.356Z,1010.30
2019-04-16T00:59:14.320Z,1010.34
2019-04-16T01:00:14.312Z,1010.37
2019-04-16T01:01:14.298Z,1010.36
2019-04-16T01:02:14.288Z,1010.36
2019-04-16T01:03:14.297Z,1010.37
2019-04-16T01:04:14.275Z,1010.34
2019-04-16T01:05:14.256Z,1010.32
2019-04-16T01:06:14.242Z,1010.34
2019-04-16T01:07:14.233Z,1010.36
2019-04-16T01:08:14.245Z,1010.37
2019-04-16T01:09:14.211Z,1010.37
2019-04-16T01:10:14.197Z,1010.31
2019-04-16T01:11:14.192Z,1010.31
2019-04-16T01:12:14.211Z,1010.35
2019-04-16T01:13:14.186Z,1010.33
2019-04-16T01:14:14.155Z,1010.32
2019-04-16T01:15:14.205Z,1010.33
2019-04-16T01:16:14.132Z,1010.35
2019-04-16T01:17:14.125Z,1010.33
2019-04-16T01:18:14.147Z,1010.34
2019-04-16T01:19:14.097Z,1010.37
2019-04-16T01:20:14.090Z,1010.31
2019-04-16T01:21:14.887Z,1010.31
2019-04-16T01:22:16.076Z,1010.28
2019-04-16T01:23:17.535Z,1010.28
2019-04-16T01:24:14.108Z,1010.26
2019-04-16T01:25:14.034Z,1010.25
2019-04-16T01:26:14.019Z,1010.23
2019-04-16T01:27:14.019Z,1010.23
2019-04-16T01:28:14.001Z,1010.23
2019-04-16T01:29:14.012Z,1010.24
2019-04-16T01:30:13.989Z,1010.24
2019-04-16T01:31:13.972Z,1010.20
2019-04-16T01:32:13.963Z,1010.15
2019-04-16T01:33:14.641Z,1010.13
2019-04-16T01:34:15.252Z,1010.15
2019-04-16T01:35:18.581Z,1010.13
2019-04-16T01:36:14.908Z,1010.10
2019-04-16T01:37:13.905Z,1010.10
2019-04-16T01:38:13.882Z,1010.08
2019-04-16T01:39:17.908Z,1010.05
2019-04-16T01:40:18.379Z,1010.04
2019-04-16T01:41:13.852Z,1010.05
2019-04-16T01:42:13.912Z,1010.06
2019-04-16T01:43:13.826Z,1010.08
2019-04-16T01:44:13.835Z,1010.02
2019-04-16T01:45:13.806Z,1010.08
2019-04-16T01:46:13.794Z,1010.07
2019-04-16T01:47:13.812Z,1010.10
2019-04-16T01:48:13.805Z,1010.06
2019-04-16T01:49:13.864Z,1010.07
2019-04-16T01:50:14.137Z,1010.04
2019-04-16T01:51:15.418Z,1010.05
2019-04-16T01:52:13.732Z,1010.03
2019-04-16T01:53:13.801Z,1010.03
2019-04-16T01:54:13.780Z,1010.04
2019-04-16T01:55:13.694Z,1010.02
2019-04-16T01:56:13.680Z,1010.03
2019-04-16T01:57:13.673Z,1009.98
2019-04-16T01:58:13.661Z,1010.00
2019-04-16T01:59:13.746Z,1009.96
2019-04-16T02:00:13.642Z,1009.88
2019-04-16T02:01:13.638Z,1009.91
2019-04-16T02:02:15.761Z,1009.87
2019-04-16T02:03:17.545Z,1009.94
2019-04-16T02:04:13.614Z,1009.91
2019-04-16T02:05:13.581Z,1009.91
2019-04-16T02:06:13.567Z,1009.89
2019-04-16T02:07:13.556Z,1009.92
2019-04-16T02:08:13.544Z,1009.85
2019-04-16T02:09:22.382Z,1009.88
2019-04-16T02:10:13.535Z,1009.88
2019-04-16T02:11:13.511Z,1009.92
2019-04-16T02:12:14.152Z,1009.86
2019-04-16T02:13:15.214Z,1009.89
2019-04-16T02:14:14.582Z,1009.87
2019-04-16T02:15:13.466Z,1009.86
2019-04-16T02:16:13.454Z,1009.88
2019-04-16T02:17:13.449Z,1009.86
2019-04-16T02:18:13.437Z,1009.85
2019-04-16T02:19:13.467Z,1009.84
2019-04-16T02:20:13.408Z,1009.82
2019-04-16T02:21:13.402Z,1009.85
2019-04-16T02:22:14.087Z,1009.83
2019-04-16T02:23:16.258Z,1009.83
2019-04-16T02:24:13.598Z,1009.80
2019-04-16T02:25:13.355Z,1009.81
2019-04-16T02:26:13.340Z,1009.81
2019-04-16T02:27:13.330Z,1009.85
2019-04-16T02:28:13.323Z,1009.86
2019-04-16T02:29:13.333Z,1009.89
2019-04-16T02:30:13.307Z,1009.85
2019-04-16T02:31:16.048Z,1009.89
2019-04-16T02:32:13.277Z,1009.81
2019-04-16T02:33:13.264Z,1009.83
2019-04-16T02:34:13.683Z,1009.81
2019-04-16T02:35:13.259Z,1009.82
2019-04-16T02:36:13.256Z,1009.82
2019-04-16T02:37:13.226Z,1009.83
2019-04-16T02:38:14.246Z,1009.80
2019-04-16T02:39:13.203Z,1009.83
2019-04-16T02:40:18.493Z,1009.85
2019-04-16T02:41:13.179Z,1009.79
2019-04-16T02:42:13.163Z,1009.83
2019-04-16T02:43:13.212Z,1009.78
2019-04-16T02:44:16.315Z,1009.84
2019-04-16T02:45:13.207Z,1009.84
2019-04-16T02:46:13.574Z,1009.84
2019-04-16T02:47:13.443Z,1009.80
2019-04-16T02:48:16.664Z,1009.77
2019-04-16T02:49:13.089Z,1009.76
2019-04-16T02:50:13.096Z,1009.77
2019-04-16T02:51:13.062Z,1009.75
2019-04-16T02:52:16.454Z,1009.75
2019-04-16T02:53:13.079Z,1009.70
2019-04-16T02:54:13.029Z,1009.75
2019-04-16T02:55:13.056Z,1009.70
2019-04-16T02:56:17.199Z,1009.78
2019-04-16T02:57:13.998Z,1009.74
2019-04-16T02:58:12.990Z,1009.73
2019-04-16T02:59:13.655Z,1009.72
2019-04-16T03:00:17.603Z,1009.71
2019-04-16T03:01:13.952Z,1009.73
2019-04-16T03:02:12.941Z,1009.73
2019-04-16T03:03:12.931Z,1009.72
2019-04-16T03:04:12.918Z,1009.70
2019-04-16T03:05:12.935Z,1009.77
2019-04-16T03:06:12.896Z,1009.70
2019-04-16T03:07:12.882Z,1009.70
2019-04-16T03:08:12.872Z,1009.74
2019-04-16T03:09:12.868Z,1009.73
2019-04-16T03:10:13.867Z,1009.70
2019-04-16T03:11:16.244Z,1009.73
2019-04-16T03:12:12.829Z,1009.75
2019-04-16T03:13:12.921Z,1009.70
2019-04-16T03:14:12.806Z,1009.72
2019-04-16T03:15:12.884Z,1009.71
2019-04-16T03:16:12.829Z,1009.69
2019-04-16T03:17:12.775Z,1009.67
2019-04-16T03:18:14.867Z,1009.65
2019-04-16T03:19:12.748Z,1009.68
2019-04-16T03:20:12.761Z,1009.67
2019-04-16T03:21:12.740Z,1009.65
2019-04-16T03:22:12.906Z,1009.66
2019-04-16T03:23:12.710Z,1009.67
2019-04-16T03:24:12.893Z,1009.63
2019-04-16T03:25:14.127Z,1009.66
2019-04-16T03:26:16.190Z,1009.64
2019-04-16T03:27:12.669Z,1009.68
2019-04-16T03:28:12.651Z,1009.63
2019-04-16T03:29:12.641Z,1009.61
2019-04-16T03:30:12.652Z,1009.60
2019-04-16T03:31:19.377Z,1009.60
2019-04-16T03:32:14.794Z,1009.62
2019-04-16T03:33:14.926Z,1009.61
2019-04-16T03:34:12.883Z,1009.60
2019-04-16T03:35:12.632Z,1009.58
2019-04-16T03:36:12.559Z,1009.59
2019-04-16T03:37:12.563Z,1009.53
2019-04-16T03:38:12.541Z,1009.57
2019-04-16T03:39:13.876Z,1009.53
2019-04-16T03:40:17.373Z,1009.53
2019-04-16T03:41:13.515Z,1009.57
2019-04-16T03:42:12.493Z,1009.55
2019-04-16T03:43:12.485Z,1009.54
2019-04-16T03:44:12.475Z,1009.53
2019-04-16T03:45:12.576Z,1009.55
2019-04-16T03:46:13.935Z,1009.51
2019-04-16T03:47:12.465Z,1009.50
2019-04-16T03:48:12.428Z,1009.49
2019-04-16T03:49:12.419Z,1009.47
2019-04-16T03:50:12.445Z,1009.44
2019-04-16T03:51:12.411Z,1009.43
2019-04-16T03:52:12.382Z,1009.38
2019-04-16T03:53:16.293Z,1009.44
2019-04-16T03:54:12.364Z,1009.38
2019-04-16T03:55:12.367Z,1009.40
2019-04-16T03:56:12.366Z,1009.37
2019-04-16T03:57:12.382Z,1009.36
2019-04-16T03:58:12.317Z,1009.38
2019-04-16T03:59:12.565Z,1009.36
2019-04-16T04:00:13.165Z,1009.38
2019-04-16T04:01:14.246Z,1009.33
2019-04-16T04:02:15.073Z,1009.28
2019-04-16T04:03:12.352Z,1009.31
2019-04-16T04:04:12.255Z,1009.26
2019-04-16T04:05:12.238Z,1009.30
2019-04-16T04:06:12.249Z,1009.33
2019-04-16T04:07:13.416Z,1009.38
2019-04-16T04:08:16.333Z,1009.36
2019-04-16T04:09:12.195Z,1009.34
2019-04-16T04:10:12.185Z,1009.36
2019-04-16T04:11:12.272Z,1009.40
2019-04-16T04:12:12.977Z,1009.38
2019-04-16T04:13:17.484Z,1009.39
2019-04-16T04:14:12.186Z,1009.40
2019-04-16T04:15:12.150Z,1009.40
2019-04-16T04:16:12.229Z,1009.42
2019-04-16T04:17:12.263Z,1009.40
2019-04-16T04:18:12.905Z,1009.40
2019-04-16T04:19:15.369Z,1009.40
2019-04-16T04:20:14.604Z,1009.39
2019-04-16T04:21:13.307Z,1009.39
2019-04-16T04:22:12.049Z,1009.43
2019-04-16T04:23:12.040Z,1009.40
2019-04-16T04:24:12.031Z,1009.37
2019-04-16T04:25:12.019Z,1009.38
2019-04-16T04:26:12.185Z,1009.43
2019-04-16T04:27:14.769Z,1009.39
2019-04-16T04:28:12.012Z,1009.43
2019-04-16T04:29:11.974Z,1009.39
2019-04-16T04:30:11.982Z,1009.38
2019-04-16T04:31:11.975Z,1009.40
2019-04-16T04:32:11.942Z,1009.45
2019-04-16T04:33:11.964Z,1009.44
2019-04-16T04:34:15.900Z,1009.45
2019-04-16T04:35:11.913Z,1009.47
2019-04-16T04:36:12.224Z,1009.42
2019-04-16T04:37:11.929Z,1009.41
2019-04-16T04:38:11.874Z,1009.48
2019-04-16T04:39:15.233Z,1009.48
2019-04-16T04:40:15.376Z,1009.46
2019-04-16T04:41:11.879Z,1009.47
2019-04-16T04:42:11.839Z,1009.47
2019-04-16T04:43:11.856Z,1009.47
2019-04-16T04:44:12.027Z,1009.44
2019-04-16T04:45:11.847Z,1009.46
2019-04-16T04:46:14.813Z,1009.44
2019-04-16T04:47:11.962Z,1009.41
2019-04-16T04:48:12.272Z,1009.41
2019-04-16T04:49:11.785Z,1009.43
2019-04-16T04:50:11.742Z,1009.45
2019-04-16T04:51:11.757Z,1009.44
2019-04-16T04:52:14.715Z,1009.44
2019-04-16T04:53:11.709Z,1009.49
2019-04-16T04:54:11.698Z,1009.46
2019-04-16T04:55:11.686Z,1009.44
2019-04-16T04:56:11.701Z,1009.44
2019-04-16T04:57:11.678Z,1009.42
2019-04-16T04:58:11.653Z,1009.39
2019-04-16T04:59:11.644Z,1009.42
2019-04-16T05:00:11.639Z,1009.42
2019-04-16T05:01:13.614Z,1009.44
2019-04-16T05:02:14.261Z,1009.43
2019-04-16T05:03:12.405Z,1009.47
2019-04-16T05:04:11.586Z,1009.44
2019-04-16T05:05:11.593Z,1009.49
2019-04-16T05:06:11.600Z,1009.46
2019-04-16T05:07:11.555Z,1009.45
2019-04-16T05:08:11.555Z,1009.44
2019-04-16T05:09:11.532Z,1009.47
2019-04-16T05:10:11.521Z,1009.45
2019-04-16T05:11:14.692Z,1009.46
2019-04-16T05:12:11.526Z,1009.47
2019-04-16T05:13:11.488Z,1009.47
2019-04-16T05:14:11.479Z,1009.49
2019-04-16T05:15:11.468Z,1009.49
2019-04-16T05:16:11.522Z,1009.49
2019-04-16T05:17:11.499Z,1009.49
2019-04-16T05:18:11.622Z,1009.52
2019-04-16T05:19:14.850Z,1009.55
2019-04-16T05:20:15.094Z,1009.55
2019-04-16T05:21:11.405Z,1009.53
2019-04-16T05:22:11.414Z,1009.48
2019-04-16T05:23:11.414Z,1009.53
2019-04-16T05:24:11.366Z,1009.52
2019-04-16T05:25:11.364Z,1009.56
2019-04-16T05:26:11.349Z,1009.52
2019-04-16T05:27:11.356Z,1009.55
2019-04-16T05:28:12.721Z,1009.51
2019-04-16T05:29:16.139Z,1009.56
2019-04-16T05:30:11.303Z,1009.53
2019-04-16T05:31:11.291Z,1009.52
2019-04-16T05:32:11.345Z,1009.54
2019-04-16T05:33:11.421Z,1009.59
2019-04-16T05:34:11.264Z,1009.54
2019-04-16T05:35:11.277Z,1009.48
2019-04-16T05:36:14.287Z,1009.54
2019-04-16T05:37:11.257Z,1009.55
2019-04-16T05:38:11.213Z,1009.57
2019-04-16T05:39:11.260Z,1009.57
2019-04-16T05:40:11.201Z,1009.57
2019-04-16T05:41:13.532Z,1009.56
2019-04-16T05:42:11.217Z,1009.61
2019-04-16T05:43:11.158Z,1009.60
2019-04-16T05:44:11.253Z,1009.60
2019-04-16T05:45:11.436Z,1009.62
2019-04-16T05:46:11.502Z,1009.64
2019-04-16T05:47:11.337Z,1009.67
2019-04-16T05:48:11.346Z,1009.64
2019-04-16T05:49:11.503Z,1009.65
2019-04-16T05:50:11.076Z,1009.67
2019-04-16T05:51:11.162Z,1009.65
2019-04-16T05:52:11.084Z,1009.63
2019-04-16T05:53:13.239Z,1009.67
2019-04-16T05:54:12.306Z,1009.66
2019-04-16T05:55:16.913Z,1009.63
2019-04-16T05:56:11.013Z,1009.66
2019-04-16T05:57:11.022Z,1009.70
2019-04-16T05:58:10.991Z,1009.71
2019-04-16T05:59:10.979Z,1009.70
2019-04-16T06:00:10.981Z,1009.69
2019-04-16T06:01:13.621Z,1009.68
2019-04-16T06:02:11.034Z,1009.67
2019-04-16T06:03:10.934Z,1009.66
2019-04-16T06:04:10.919Z,1009.71
2019-04-16T06:05:10.906Z,1009.76
2019-04-16T06:06:10.897Z,1009.69
2019-04-16T06:07:10.922Z,1009.70
2019-04-16T06:08:10.889Z,1009.64
2019-04-16T06:09:12.241Z,1009.66
2019-04-16T06:10:17.007Z,1009.67
2019-04-16T06:11:11.846Z,1009.64
2019-04-16T06:12:10.854Z,1009.65
2019-04-16T06:13:12.695Z,1009.65
2019-04-16T06:14:16.962Z,1009.63
2019-04-16T06:15:10.805Z,1009.66
2019-04-16T06:16:10.803Z,1009.66
2019-04-16T06:17:10.801Z,1009.63
2019-04-16T06:18:10.766Z,1009.68
2019-04-16T06:19:11.455Z,1009.68
2019-04-16T06:20:10.741Z,1009.66
2019-04-16T06:21:10.727Z,1009.68
2019-04-16T06:22:10.749Z,1009.70
2019-04-16T06:23:10.718Z,1009.62
2019-04-16T06:24:10.693Z,1009.68
2019-04-16T06:25:11.152Z,1009.68
2019-04-16T06:26:14.557Z,1009.64
2019-04-16T06:27:10.679Z,1009.65
2019-04-16T06:28:10.680Z,1009.65
2019-04-16T06:29:10.643Z,1009.64
2019-04-16T06:30:10.626Z,1009.66
2019-04-16T06:31:10.662Z,1009.64
2019-04-16T06:32:11.888Z,1009.70
2019-04-16T06:33:10.616Z,1009.66
2019-04-16T06:34:10.582Z,1009.70
2019-04-16T06:35:10.612Z,1009.68
2019-04-16T06:36:10.561Z,1009.65
2019-04-16T06:37:10.546Z,1009.64
2019-04-16T06:38:10.561Z,1009.64
2019-04-16T06:39:10.527Z,1009.63
2019-04-16T06:40:10.518Z,1009.61
2019-04-16T06:41:10.505Z,1009.63
2019-04-16T06:42:10.495Z,1009.61
2019-04-16T06:43:10.508Z,1009.61
2019-04-16T06:44:10.468Z,1009.61
2019-04-16T06:45:10.475Z,1009.60
2019-04-16T06:46:10.445Z,1009.59
2019-04-16T06:47:11.277Z,1009.57
2019-04-16T06:48:13.181Z,1009.57
2019-04-16T06:49:10.414Z,1009.57
2019-04-16T06:50:10.403Z,1009.58
2019-04-16T06:51:12.413Z,1009.61
2019-04-16T06:52:15.884Z,1009.57
2019-04-16T06:53:11.404Z,1009.56
2019-04-16T06:54:11.230Z,1009.53
2019-04-16T06:55:10.351Z,1009.54
2019-04-16T06:56:10.333Z,1009.53
2019-04-16T06:57:12.148Z,1009.43
2019-04-16T06:58:12.450Z,1009.41
2019-04-16T06:59:10.301Z,1009.42
2019-04-16T07:00:10.291Z,1009.47
2019-04-16T07:01:10.280Z,1009.43
2019-04-16T07:02:10.589Z,1009.45
2019-04-16T07:03:10.288Z,1009.49
2019-04-16T07:04:10.246Z,1009.45
2019-04-16T07:05:10.233Z,1009.45
2019-04-16T07:06:10.224Z,1009.44
2019-04-16T07:07:10.210Z,1009.44
2019-04-16T07:08:10.230Z,1009.40
2019-04-16T07:09:10.192Z,1009.37
2019-04-16T07:10:10.177Z,1009.36
2019-04-16T07:11:10.179Z,1009.32
2019-04-16T07:12:10.155Z,1009.33
2019-04-16T07:13:11.321Z,1009.29
2019-04-16T07:14:11.553Z,1009.33
2019-04-16T07:15:10.129Z,1009.27
2019-04-16T07:16:10.118Z,1009.32
2019-04-16T07:17:10.102Z,1009.30
2019-04-16T07:18:10.114Z,1009.31
2019-04-16T07:19:11.239Z,1009.31
2019-04-16T07:20:13.096Z,1009.30
2019-04-16T07:21:10.061Z,1009.25
2019-04-16T07:22:10.048Z,1009.28
2019-04-16T07:23:10.071Z,1009.27
2019-04-16T07:24:10.039Z,1009.20
2019-04-16T07:25:10.016Z,1009.20
2019-04-16T07:26:13.479Z,1009.16
2019-04-16T07:27:09.987Z,1009.16
2019-04-16T07:28:10.009Z,1009.17
2019-04-16T07:29:09.991Z,1009.15
2019-04-16T07:30:09.968Z,1009.15
2019-04-16T07:31:13.406Z,1009.12
2019-04-16T07:32:09.989Z,1009.15
2019-04-16T07:33:09.942Z,1009.11
2019-04-16T07:34:09.910Z,1009.15
2019-04-16T07:35:09.899Z,1009.09
2019-04-16T07:36:09.905Z,1009.11
2019-04-16T07:37:09.875Z,1009.03
2019-04-16T07:38:11.583Z,1009.10
2019-04-16T07:39:13.355Z,1009.03
2019-04-16T07:40:10.533Z,1009.07
2019-04-16T07:41:11.910Z,1009.06
2019-04-16T07:42:12.623Z,1009.05
2019-04-16T07:43:09.810Z,1009.10
2019-04-16T07:44:11.114Z,1009.03
2019-04-16T07:45:12.470Z,1009.03
2019-04-16T07:46:09.822Z,1009.06
2019-04-16T07:47:09.783Z,1009.07
2019-04-16T07:48:09.752Z,1009.04
2019-04-16T07:49:09.765Z,1008.96
2019-04-16T07:50:09.730Z,1008.98
2019-04-16T07:51:09.723Z,1008.99
2019-04-16T07:52:12.173Z,1009.00
2019-04-16T07:53:13.336Z,1009.00
2019-04-16T07:54:09.718Z,1008.92
2019-04-16T07:55:09.709Z,1008.96
2019-04-16T07:56:09.671Z,1008.99
2019-04-16T07:57:09.657Z,1009.02
2019-04-16T07:58:09.648Z,1009.04
2019-04-16T07:59:09.655Z,1009.00
2019-04-16T08:00:09.868Z,1009.00
2019-04-16T08:01:12.729Z,1008.99
2019-04-16T08:02:09.676Z,1009.02
2019-04-16T08:03:09.706Z,1008.98
2019-04-16T08:04:09.607Z,1009.00
2019-04-16T08:05:09.870Z,1008.96
2019-04-16T08:06:10.658Z,1008.94
2019-04-16T08:07:09.563Z,1008.88
2019-04-16T08:08:09.535Z,1008.88
2019-04-16T08:09:09.559Z,1008.90
2019-04-16T08:10:09.510Z,1008.93
2019-04-16T08:11:09.498Z,1008.93
2019-04-16T08:12:22.080Z,1008.90
2019-04-16T08:13:09.775Z,1008.91
2019-04-16T08:14:10.307Z,1008.92
2019-04-16T08:15:14.254Z,1008.91
2019-04-16T08:16:09.457Z,1008.92
2019-04-16T08:17:09.433Z,1008.92
2019-04-16T08:18:09.466Z,1008.87
2019-04-16T08:19:12.234Z,1008.88
2019-04-16T08:20:09.403Z,1008.87
2019-04-16T08:21:12.200Z,1008.92
2019-04-16T08:22:09.397Z,1008.87
2019-04-16T08:23:09.365Z,1008.92
2019-04-16T08:24:09.395Z,1008.95
2019-04-16T08:25:09.346Z,1008.88
2019-04-16T08:26:12.926Z,1008.82
2019-04-16T08:27:10.425Z,1008.86
2019-04-16T08:28:09.308Z,1008.88
2019-04-16T08:29:09.322Z,1008.88
2019-04-16T08:30:09.285Z,1008.95
2019-04-16T08:31:12.282Z,1008.91
2019-04-16T08:32:09.277Z,1008.91
2019-04-16T08:33:11.205Z,1008.90
2019-04-16T08:34:09.268Z,1008.94
2019-04-16T08:35:09.232Z,1008.99
2019-04-16T08:36:09.409Z,1008.95
2019-04-16T08:37:09.215Z,1008.95
2019-04-16T08:38:09.198Z,1008.97
2019-04-16T08:39:09.218Z,1008.95
2019-04-16T08:40:12.246Z,1008.91
2019-04-16T08:41:12.425Z,1008.84
2019-04-16T08:42:09.193Z,1008.89
2019-04-16T08:43:09.214Z,1008.92
2019-04-16T08:44:10.302Z,1008.90
2019-04-16T08:45:09.290Z,1008.88
2019-04-16T08:46:11.265Z,1008.90
2019-04-16T08:47:12.136Z,1008.80
2019-04-16T08:48:09.719Z,1008.77
2019-04-16T08:49:09.094Z,1008.76
2019-04-16T08:50:11.745Z,1008.81
2019-04-16T08:51:09.181Z,1008.77
2019-04-16T08:52:10.172Z,1008.80
2019-04-16T08:53:13.519Z,1008.77
2019-04-16T08:54:10.047Z,1008.77
2019-04-16T08:55:09.011Z,1008.76
2019-04-16T08:56:09.003Z,1008.74
2019-04-16T08:57:08.985Z,1008.78
2019-04-16T08:58:12.214Z,1008.81
2019-04-16T08:59:10.944Z,1008.77
2019-04-16T09:00:14.392Z,1008.74
2019-04-16T09:01:09.987Z,1008.75
2019-04-16T09:02:08.930Z,1008.78
2019-04-16T09:03:09.006Z,1008.77
2019-04-16T09:04:08.905Z,1008.77
2019-04-16T09:05:11.491Z,1008.74
2019-04-16T09:06:12.790Z,1008.72
2019-04-16T09:07:12.145Z,1008.79
2019-04-16T09:08:13.008Z,1008.71
2019-04-16T09:09:13.959Z,1008.76
2019-04-16T09:10:17.140Z,1008.75
2019-04-16T09:11:22.580Z,1008.70
2019-04-16T09:12:09.743Z,1008.75
2019-04-16T09:13:08.845Z,1008.71
2019-04-16T09:14:08.803Z,1008.70
2019-04-16T09:15:08.901Z,1008.65
2019-04-16T09:16:10.803Z,1008.64
2019-04-16T09:17:09.902Z,1008.62
2019-04-16T09:18:08.749Z,1008.65
2019-04-16T09:19:08.743Z,1008.68
2019-04-16T09:20:08.761Z,1008.65
2019-04-16T09:21:10.268Z,1008.65
2019-04-16T09:22:08.705Z,1008.65
2019-04-16T09:23:08.878Z,1008.63
2019-04-16T09:24:09.682Z,1008.64
2019-04-16T09:25:12.491Z,1008.64
2019-04-16T09:26:14.820Z,1008.64
2019-04-16T09:27:08.663Z,1008.68
2019-04-16T09:28:23.789Z,1008.70
2019-04-16T09:29:10.405Z,1008.66
2019-04-16T09:30:10.796Z,1008.64
2019-04-16T09:31:09.605Z,1008.59
2019-04-16T09:32:08.594Z,1008.57
2019-04-16T09:33:08.582Z,1008.62
2019-04-16T09:34:08.578Z,1008.59
2019-04-16T09:35:11.014Z,1008.61
2019-04-16T09:36:08.550Z,1008.57
2019-04-16T09:37:08.543Z,1008.60
2019-04-16T09:38:09.374Z,1008.62
2019-04-16T09:39:08.515Z,1008.61
2019-04-16T09:40:16.741Z,1008.60
2019-04-16T09:41:08.495Z,1008.57
2019-04-16T09:42:08.482Z,1008.62
2019-04-16T09:43:16.773Z,1008.49
2019-04-16T09:44:08.684Z,1008.52
2019-04-16T09:45:08.473Z,1008.50
2019-04-16T09:46:10.947Z,1008.51
2019-04-16T09:47:08.430Z,1008.55
2019-04-16T09:48:08.417Z,1008.54
2019-04-16T09:49:08.409Z,1008.53
2019-04-16T09:50:11.071Z,1008.44
2019-04-16T09:51:08.383Z,1008.53
2019-04-16T09:52:08.370Z,1008.52
2019-04-16T09:53:08.365Z,1008.50
2019-04-16T09:54:12.677Z,1008.52
2019-04-16T09:55:08.365Z,1008.53
2019-04-16T09:56:08.329Z,1008.56
2019-04-16T09:57:08.316Z,1008.48
2019-04-16T09:58:08.306Z,1008.47
2019-04-16T09:59:11.122Z,1008.45
2019-04-16T10:00:09.309Z,1008.46
2019-04-16T10:01:08.272Z,1008.45
2019-04-16T10:02:08.336Z,1008.41
2019-04-16T10:03:08.254Z,1008.40
2019-04-16T10:04:08.245Z,1008.46
2019-04-16T10:05:08.268Z,1008.43
2019-04-16T10:06:08.224Z,1008.44
2019-04-16T10:07:08.209Z,1008.44
2019-04-16T10:08:09.549Z,1008.49
2019-04-16T10:09:08.189Z,1008.49
2019-04-16T10:10:08.221Z,1008.48
2019-04-16T10:11:08.176Z,1008.44
2019-04-16T10:12:08.670Z,1008.49
2019-04-16T10:13:08.165Z,1008.49
2019-04-16T10:14:08.133Z,1008.49
2019-04-16T10:15:08.224Z,1008.43
2019-04-16T10:16:08.134Z,1008.49
2019-04-16T10:17:08.107Z,1008.48
2019-04-16T10:18:08.113Z,1008.49
2019-04-16T10:19:09.049Z,1008.47
2019-04-16T10:20:08.100Z,1008.44
2019-04-16T10:21:08.062Z,1008.49
2019-04-16T10:22:08.079Z,1008.48
2019-04-16T10:23:08.042Z,1008.52
2019-04-16T10:24:08.033Z,1008.50
2019-04-16T10:25:08.014Z,1008.58
2019-04-16T10:26:08.039Z,1008.63
2019-04-16T10:27:08.015Z,1008.57
2019-04-16T10:28:07.997Z,1008.60
2019-04-16T10:29:07.990Z,1008.57
2019-04-16T10:30:07.991Z,1008.70
2019-04-16T10:31:07.999Z,1008.62
2019-04-16T10:32:07.963Z,1008.63
2019-04-16T10:33:07.939Z,1008.65
2019-04-16T10:34:07.933Z,1008.71
2019-04-16T10:35:07.903Z,1008.58
2019-04-16T10:36:08.003Z,1008.60
2019-04-16T10:37:07.885Z,1008.63
2019-04-16T10:38:07.877Z,1008.58
2019-04-16T10:39:07.867Z,1008.67
2019-04-16T10:40:07.861Z,1008.57
2019-04-16T10:41:07.899Z,1008.60
2019-04-16T10:42:07.846Z,1008.56
2019-04-16T10:43:07.821Z,1008.54
2019-04-16T10:44:07.808Z,1008.63
2019-04-16T10:45:07.818Z,1008.58
2019-04-16T10:46:09.761Z,1008.58
2019-04-16T10:47:07.777Z,1008.59
2019-04-16T10:48:07.775Z,1008.52
2019-04-16T10:49:07.758Z,1008.46
2019-04-16T10:50:07.762Z,1008.46
2019-04-16T10:51:07.780Z,1008.50
2019-04-16T10:52:07.745Z,1008.52
2019-04-16T10:53:07.723Z,1008.51
2019-04-16T10:54:07.748Z,1008.53
2019-04-16T10:55:09.358Z,1008.53
2019-04-16T10:56:07.707Z,1008.55
2019-04-16T10:57:10.374Z,1008.50
2019-04-16T10:58:07.695Z,1008.53
2019-04-16T10:59:07.733Z,1008.47
2019-04-16T11:00:07.661Z,1008.46
2019-04-16T11:01:07.661Z,1008.49
2019-04-16T11:02:10.640Z,1008.50
2019-04-16T11:03:07.620Z,1008.46
2019-04-16T11:04:07.979Z,1008.47
2019-04-16T11:05:07.698Z,1008.48
2019-04-16T11:06:07.635Z,1008.49
2019-04-16T11:07:07.576Z,1008.50
2019-04-16T11:08:08.186Z,1008.45
2019-04-16T11:09:07.584Z,1008.47
2019-04-16T11:10:07.560Z,1008.46
2019-04-16T11:11:07.579Z,1008.54
2019-04-16T11:12:07.533Z,1008.49
2019-04-16T11:13:07.571Z,1008.46
2019-04-16T11:14:07.532Z,1008.48
2019-04-16T11:15:07.497Z,1008.46
2019-04-16T11:16:07.529Z,1008.50
2019-04-16T11:17:07.482Z,1008.38
2019-04-16T11:18:07.506Z,1008.39
2019-04-16T11:19:07.483Z,1008.46
2019-04-16T11:20:08.157Z,1008.42
2019-04-16T11:21:07.477Z,1008.42
2019-04-16T11:22:07.474Z,1008.47
2019-04-16T11:23:08.155Z,1008.46
2019-04-16T11:24:07.417Z,1008.43
2019-04-16T11:25:07.413Z,1008.46
2019-04-16T11:26:07.427Z,1008.48
2019-04-16T11:27:07.393Z,1008.48
2019-04-16T11:28:07.396Z,1008.45
2019-04-16T11:29:07.426Z,1008.45
2019-04-16T11:30:07.397Z,1008.40
2019-04-16T11:31:07.386Z,1008.41
2019-04-16T11:32:07.345Z,1008.37
2019-04-16T11:33:07.709Z,1008.41
2019-04-16T11:34:07.413Z,1008.41
2019-04-16T11:35:07.324Z,1008.38
2019-04-16T11:36:18.625Z,1008.30
2019-04-16T11:37:09.121Z,1008.36
2019-04-16T11:38:07.353Z,1008.41
2019-04-16T11:39:07.314Z,1008.33
2019-04-16T11:40:07.286Z,1008.35
2019-04-16T11:41:07.326Z,1008.37
2019-04-16T11:42:07.454Z,1008.40
2019-04-16T11:43:07.330Z,1008.43
2019-04-16T11:44:15.212Z,1008.45
2019-04-16T11:45:07.265Z,1008.36
2019-04-16T11:46:07.302Z,1008.46
2019-04-16T11:47:07.235Z,1008.46
2019-04-16T11:48:07.218Z,1008.51
2019-04-16T11:49:07.236Z,1008.49
2019-04-16T11:50:07.246Z,1008.49
2019-04-16T11:51:07.223Z,1008.48
2019-04-16T11:52:07.231Z,1008.47
2019-04-16T11:53:07.178Z,1008.41
2019-04-16T11:54:08.344Z,1008.45
2019-04-16T11:55:07.147Z,1008.40
2019-04-16T11:56:07.157Z,1008.40
2019-04-16T11:57:07.186Z,1008.40
2019-04-16T11:58:07.151Z,1008.36
2019-04-16T11:59:07.129Z,1008.39
2019-04-16T12:00:08.460Z,1008.39
2019-04-16T12:01:07.126Z,1008.40
2019-04-16T12:02:07.164Z,1008.47
2019-04-16T12:03:07.110Z,1008.40
2019-04-16T12:04:07.099Z,1008.35
2019-04-16T12:05:07.084Z,1008.37